createdAt,value
2023-01-31T00:01:06.602Z,101059.50
2023-01-31T00:03:33.204Z,101065.50
2023-01-31T00:06:13.851Z,101063.75
2023-01-31T00:08:40.431Z,101064.63
2023-01-31T00:11:06.958Z,101060.38
2023-01-31T00:13:33.591Z,101059.28
2023-01-31T00:16:00.156Z,101061.88
2023-01-31T00:18:27.213Z,101060.28
2023-01-31T00:20:53.796Z,101060.88
2023-01-31T00:23:20.275Z,101071.34
2023-01-31T00:25:46.843Z,101061.78
2023-01-31T00:28:13.314Z,101064.63
2023-01-31T00:30:39.794Z,101064.53
2023-01-31T00:33:06.337Z,101071.53
2023-01-31T00:35:32.795Z,101070.47
2023-01-31T00:38:00.280Z,101075.78
2023-01-31T00:40:26.730Z,101073.22
2023-01-31T00:42:53.297Z,101065.59
2023-01-31T00:45:20.115Z,101071.63
2023-01-31T00:47:46.872Z,101077.66
2023-01-31T00:50:15.167Z,101079.56
2023-01-31T00:52:42.054Z,101079.56
2023-01-31T00:55:08.947Z,101080.84
2023-01-31T00:57:35.830Z,101075.91
2023-01-31T01:00:03.253Z,101084.63
2023-01-31T01:02:29.793Z,101091.63
2023-01-31T01:04:56.275Z,101086.97
2023-01-31T01:07:22.733Z,101091.44
2023-01-31T01:09:49.195Z,101082.06
2023-01-31T01:12:15.707Z,101094.78
2023-01-31T01:14:42.200Z,101099.91
2023-01-31T01:17:08.645Z,101104.16
2023-01-31T01:19:35.131Z,101109.53
2023-01-31T01:22:02.264Z,101109.13
2023-01-31T01:24:29.124Z,101101.41
2023-01-31T01:26:55.606Z,101111.59
2023-01-31T01:29:22.183Z,101119.59
2023-01-31T01:31:49.055Z,101132.44
2023-01-31T01:34:16.577Z,101135.72
2023-01-31T01:36:45.620Z,101134.81
2023-01-31T01:39:14.089Z,101145.00
2023-01-31T01:41:41.050Z,101143.94
2023-01-31T01:44:44.713Z,101149.88
2023-01-31T01:47:28.075Z,101146.31
2023-01-31T01:49:59.367Z,101142.50
2023-01-31T01:52:27.477Z,101141.63
2023-01-31T01:54:58.316Z,101145.09
2023-01-31T01:57:31.368Z,101150.03
2023-01-31T02:00:20.448Z,101157.75
2023-01-31T02:02:48.004Z,101163.06
2023-01-31T02:05:18.245Z,101169.78
2023-01-31T02:07:45.124Z,101180.78
2023-01-31T02:10:14.123Z,101169.69
2023-01-31T02:12:41.075Z,101177.41
2023-01-31T02:15:08.420Z,101186.81
2023-01-31T02:17:34.960Z,101203.81
2023-01-31T02:20:10.947Z,101204.50
2023-01-31T02:22:57.266Z,101206.03
2023-01-31T02:25:45.029Z,101207.94
2023-01-31T02:28:20.763Z,101200.25
2023-01-31T02:31:02.862Z,101202.81
2023-01-31T02:33:45.165Z,101206.72
2023-01-31T02:36:33.177Z,101207.50
2023-01-31T02:39:24.672Z,101200.41
2023-01-31T02:42:02.672Z,101188.69
2023-01-31T02:45:02.134Z,101180.19
2023-01-31T02:47:52.420Z,101182.56
2023-01-31T02:50:31.998Z,101180.59
2023-01-31T02:53:04.918Z,101182.06
2023-01-31T02:55:55.613Z,101204.03
2023-01-31T02:58:23.317Z,101193.56
2023-01-31T03:00:49.916Z,101194.16
2023-01-31T03:03:26.062Z,101184.88
2023-01-31T03:06:31.582Z,101187.25
2023-01-31T03:09:11.320Z,101192.28
2023-01-31T03:12:19.453Z,101185.22
2023-01-31T03:14:55.698Z,101193.72
2023-01-31T03:17:59.153Z,101199.84
2023-01-31T03:20:43.709Z,101198.06
2023-01-31T03:23:19.664Z,101193.94
2023-01-31T03:25:47.863Z,101206.00
2023-01-31T03:28:27.123Z,101206.00
2023-01-31T03:31:21.498Z,101205.91
2023-01-31T03:34:02.477Z,101213.59
2023-01-31T03:37:03.763Z,101218.84
2023-01-31T03:39:54.099Z,101217.06
2023-01-31T03:42:42.372Z,101221.63
2023-01-31T03:45:36.781Z,101200.19
2023-01-31T03:48:06.647Z,101214.91
2023-01-31T03:50:38.801Z,101223.41
2023-01-31T03:53:28.695Z,101229.53
2023-01-31T03:56:00.350Z,101237.22
2023-01-31T03:58:30.425Z,101231.31
2023-01-31T04:00:59.805Z,101233.28
2023-01-31T04:03:32.952Z,101232.53
2023-01-31T04:05:59.501Z,101237.09
2023-01-31T04:08:26.174Z,101237.88
2023-01-31T04:10:52.622Z,101237.09
2023-01-31T04:13:19.218Z,101230.97
2023-01-31T04:15:45.753Z,101231.16
2023-01-31T04:18:12.259Z,101229.19
2023-01-31T04:20:38.743Z,101226.03
2023-01-31T04:23:05.289Z,101232.94
2023-01-31T04:25:33.417Z,101225.13
2023-01-31T04:28:00.158Z,101231.84
2023-01-31T04:30:26.666Z,101232.53
2023-01-31T04:32:53.184Z,101228.41
2023-01-31T04:35:19.963Z,101240.66
2023-01-31T04:37:46.718Z,101232.75
2023-01-31T04:40:16.154Z,101234.72
2023-01-31T04:42:42.685Z,101224.66
2023-01-31T04:45:09.678Z,101235.81
2023-01-31T04:47:36.479Z,101240.19
2023-01-31T04:50:02.936Z,101240.19
2023-01-31T04:52:29.503Z,101239.53
2023-01-31T04:54:55.939Z,101244.75
2023-01-31T04:57:22.468Z,101243.88
2023-01-31T04:59:50.388Z,101240.31
2023-01-31T05:02:17.807Z,101248.78
2023-01-31T05:04:44.316Z,101245.44
2023-01-31T05:07:10.841Z,101251.00
2023-01-31T05:09:37.397Z,101253.56
2023-01-31T05:12:05.207Z,101269.78
2023-01-31T05:14:32.686Z,101251.78
2023-01-31T05:16:59.385Z,101242.97
2023-01-31T05:19:25.913Z,101254.34
2023-01-31T05:21:55.306Z,101258.31
2023-01-31T05:24:22.618Z,101256.00
2023-01-31T05:26:51.475Z,101290.84
2023-01-31T05:29:18.981Z,101270.41
2023-01-31T05:31:45.844Z,101260.13
2023-01-31T05:34:15.307Z,101263.69
2023-01-31T05:36:43.004Z,101247.00
2023-01-31T05:39:09.593Z,101249.66
2023-01-31T05:41:36.154Z,101246.13
2023-01-31T05:44:02.784Z,101254.91
2023-01-31T05:46:29.428Z,101243.63
2023-01-31T05:48:55.918Z,101237.59
2023-01-31T05:51:22.394Z,101235.94
2023-01-31T05:53:49.248Z,101224.75
2023-01-31T05:56:16.681Z,101226.34
2023-01-31T05:58:43.213Z,101238.19
2023-01-31T06:01:09.709Z,101229.69
2023-01-31T06:03:36.300Z,101234.06
2023-01-31T06:06:04.031Z,101243.44
2023-01-31T06:08:30.918Z,101245.31
2023-01-31T06:10:57.449Z,101243.53
2023-01-31T06:13:23.934Z,101253.81
2023-01-31T06:15:50.735Z,101253.03
2023-01-31T06:18:17.260Z,101253.63
2023-01-31T06:20:43.738Z,101252.03
2023-01-31T06:23:10.242Z,101260.53
2023-01-31T06:25:36.804Z,101254.59
2023-01-31T06:28:03.362Z,101255.50
2023-01-31T06:30:29.954Z,101256.19
2023-01-31T06:32:59.135Z,101258.75
2023-01-31T06:35:25.672Z,101268.84
2023-01-31T06:37:52.224Z,101265.59
2023-01-31T06:40:18.745Z,101269.03
2023-01-31T06:42:45.264Z,101257.78
2023-01-31T06:45:11.885Z,101258.66
2023-01-31T06:47:38.483Z,101258.56
2023-01-31T06:50:05.314Z,101258.66
2023-01-31T06:52:31.800Z,101258.56
2023-01-31T06:54:58.343Z,101260.78
2023-01-31T06:57:24.906Z,101256.78
2023-01-31T06:59:51.412Z,101251.84
2023-01-31T07:02:17.931Z,101244.72
2023-01-31T07:04:44.431Z,101244.91
2023-01-31T07:07:10.990Z,101245.91
2023-01-31T07:09:37.480Z,101249.38
2023-01-31T07:12:04.331Z,101248.28
2023-01-31T07:14:31.416Z,101237.50
2023-01-31T07:16:57.975Z,101232.06
2023-01-31T07:19:24.487Z,101231.47
2023-01-31T07:21:51.306Z,101234.94
2023-01-31T07:24:17.895Z,101238.59
2023-01-31T07:26:44.535Z,101238.09
2023-01-31T07:29:12.169Z,101231.47
2023-01-31T07:31:39.404Z,101233.25
2023-01-31T07:34:05.913Z,101228.31
2023-01-31T07:36:32.436Z,101224.97
2023-01-31T07:39:00.121Z,101215.69
2023-01-31T07:41:26.811Z,101217.25
2023-01-31T07:43:53.314Z,101223.41
2023-01-31T07:46:20.212Z,101216.69
2023-01-31T07:48:46.889Z,101208.19
2023-01-31T07:51:13.536Z,101204.63
2023-01-31T07:53:44.068Z,101205.63
2023-01-31T07:56:15.961Z,101202.25
2023-01-31T07:58:43.527Z,101197.75
2023-01-31T08:01:33.062Z,101200.50
2023-01-31T08:04:10.736Z,101202.09
2023-01-31T08:06:41.702Z,101197.94
2023-01-31T08:09:08.172Z,101194.69
2023-01-31T08:11:34.724Z,101177.66
2023-01-31T08:14:01.218Z,101183.78
2023-01-31T08:16:27.746Z,101171.81
2023-01-31T08:18:54.250Z,101166.00
2023-01-31T08:21:20.703Z,101161.75
2023-01-31T08:23:47.379Z,101152.38
2023-01-31T08:26:18.373Z,101156.81
2023-01-31T08:28:48.416Z,101151.16
2023-01-31T08:31:21.237Z,101152.16
2023-01-31T08:33:47.875Z,101156.75
2023-01-31T08:36:19.221Z,101141.63
2023-01-31T08:38:46.509Z,101146.16
2023-01-31T08:41:13.549Z,101142.22
2023-01-31T08:43:54.335Z,101141.59
2023-01-31T08:46:27.231Z,101143.47
2023-01-31T08:48:53.748Z,101133.78
2023-01-31T08:51:20.315Z,101142.59
2023-01-31T08:53:46.878Z,101129.22
2023-01-31T08:56:14.074Z,101123.78
2023-01-31T08:58:41.939Z,101119.78
2023-01-31T09:01:10.879Z,101127.72
2023-01-31T09:03:37.746Z,101125.34
2023-01-31T09:06:07.290Z,101115.22
2023-01-31T09:08:34.185Z,101103.16
2023-01-31T09:11:00.740Z,101105.13
2023-01-31T09:13:27.997Z,101101.06
2023-01-31T09:16:02.893Z,101099.66
2023-01-31T09:18:30.092Z,101089.63
2023-01-31T09:20:56.867Z,101083.78
2023-01-31T09:23:23.607Z,101083.28
2023-01-31T09:25:56.275Z,101086.13
2023-01-31T09:28:23.228Z,101093.25
2023-01-31T09:30:50.381Z,101084.72
2023-01-31T09:33:16.982Z,101078.25
2023-01-31T09:35:43.491Z,101068.13
2023-01-31T09:38:10.005Z,101055.44
2023-01-31T09:40:40.359Z,101053.13
2023-01-31T09:43:07.012Z,101042.19
2023-01-31T09:45:36.097Z,101034.13
2023-01-31T09:48:02.934Z,101035.03
2023-01-31T09:50:42.613Z,101029.97
2023-01-31T09:53:14.126Z,101036.09
2023-01-31T09:56:06.919Z,101036.25
2023-01-31T09:58:52.157Z,101023.56
2023-01-31T10:01:24.847Z,101003.66
2023-01-31T10:04:29.298Z,100994.31
2023-01-31T10:07:03.901Z,100990.69
2023-01-31T10:09:34.393Z,100991.66
2023-01-31T10:12:13.112Z,101003.47
2023-01-31T10:14:47.763Z,100999.28
2023-01-31T10:17:38.717Z,100997.22
2023-01-31T10:20:37.575Z,100981.50
2023-01-31T10:23:04.426Z,100977.53
2023-01-31T10:25:38.927Z,100982.19
2023-01-31T10:28:11.356Z,100971.13
2023-01-31T10:31:05.803Z,100967.84
2023-01-31T10:33:52.049Z,100953.25
2023-01-31T10:36:38.596Z,100945.59
2023-01-31T10:39:22.147Z,100950.66
2023-01-31T10:42:23.904Z,100940.66
2023-01-31T10:45:08.600Z,100937.41
2023-01-31T10:47:41.997Z,100937.78
2023-01-31T10:50:19.394Z,100931.03
2023-01-31T10:52:58.237Z,100928.72
2023-01-31T10:55:46.345Z,100927.91
2023-01-31T10:58:15.194Z,100926.78
2023-01-31T11:00:41.849Z,100930.41
2023-01-31T11:03:11.501Z,100925.63
2023-01-31T11:05:44.795Z,100922.50
2023-01-31T11:08:43.195Z,100909.69
2023-01-31T11:11:11.951Z,100906.44
2023-01-31T11:13:39.095Z,100915.66
2023-01-31T11:16:12.939Z,100895.66
2023-01-31T11:18:45.650Z,100893.16
2023-01-31T11:21:20.348Z,100904.75
2023-01-31T11:23:47.021Z,100892.25
2023-01-31T11:26:15.537Z,100881.84
2023-01-31T11:28:42.193Z,100884.19
2023-01-31T11:31:19.119Z,100886.13
2023-01-31T11:33:55.676Z,100874.59
2023-01-31T11:36:26.680Z,100880.47
2023-01-31T11:38:54.956Z,100857.50
2023-01-31T11:41:28.372Z,100848.16
2023-01-31T11:44:14.573Z,100846.28
2023-01-31T11:47:04.639Z,100840.16
2023-01-31T11:49:34.037Z,100829.69
2023-01-31T11:52:10.610Z,100813.41
2023-01-31T11:54:37.275Z,100820.19
2023-01-31T11:57:14.102Z,100799.31
2023-01-31T11:59:40.780Z,100804.38
2023-01-31T12:02:24.796Z,100804.47
2023-01-31T12:04:51.429Z,100788.81
2023-01-31T12:07:26.488Z,100784.56
2023-01-31T12:09:52.982Z,100776.75
2023-01-31T12:12:31.401Z,100778.75
2023-01-31T12:15:03.367Z,100774.56
2023-01-31T12:17:32.466Z,100756.53
2023-01-31T12:20:25.166Z,100766.19
2023-01-31T12:23:03.187Z,100755.72
2023-01-31T12:25:43.081Z,100759.19
2023-01-31T12:28:23.023Z,100747.19
2023-01-31T12:31:23.349Z,100746.53
2023-01-31T12:33:56.994Z,100735.13
2023-01-31T12:36:47.528Z,100745.56
2023-01-31T12:39:29.960Z,100725.94
2023-01-31T12:42:15.038Z,100733.59
2023-01-31T12:45:00.080Z,100731.88
2023-01-31T12:47:42.193Z,100730.94
2023-01-31T12:50:31.600Z,100732.84
2023-01-31T12:53:26.154Z,100718.19
2023-01-31T12:56:18.218Z,100720.84
2023-01-31T12:59:17.133Z,100709.44
2023-01-31T13:01:55.416Z,100704.41
2023-01-31T13:04:34.067Z,100717.47
2023-01-31T13:07:08.175Z,100709.66
2023-01-31T13:09:36.168Z,100714.66
2023-01-31T13:12:11.966Z,100716.34
2023-01-31T13:14:44.561Z,100708.69
2023-01-31T13:17:14.043Z,100700.06
2023-01-31T13:19:51.507Z,100697.34
2023-01-31T13:22:25.794Z,100698.53
2023-01-31T13:25:00.169Z,100690.81
2023-01-31T13:27:31.296Z,100686.31
2023-01-31T13:30:01.945Z,100700.31
2023-01-31T13:32:33.557Z,100708.84
2023-01-31T13:35:06.996Z,100702.88
2023-01-31T13:37:37.746Z,100702.72
2023-01-31T13:40:14.185Z,100701.78
2023-01-31T13:42:40.686Z,100709.50
2023-01-31T13:45:07.877Z,100703.47
2023-01-31T13:47:48.166Z,100715.38
2023-01-31T13:50:34.582Z,100703.53
2023-01-31T13:53:03.085Z,100709.56
2023-01-31T13:55:40.731Z,100695.50
2023-01-31T13:58:24.927Z,100705.00
2023-01-31T14:01:18.240Z,100702.16
2023-01-31T14:04:14.130Z,100702.09
2023-01-31T14:06:55.810Z,100699.59
2023-01-31T14:09:36.652Z,100690.59
2023-01-31T14:12:18.237Z,100694.13
2023-01-31T14:14:46.576Z,100695.25
2023-01-31T14:17:15.171Z,100689.34
2023-01-31T14:19:45.785Z,100697.88
2023-01-31T14:22:42.023Z,100693.06
2023-01-31T14:25:08.526Z,100688.72
2023-01-31T14:27:44.005Z,100691.31
2023-01-31T14:30:22.526Z,100682.63
2023-01-31T14:33:00.191Z,100681.81
2023-01-31T14:35:45.285Z,100672.31
2023-01-31T14:38:49.381Z,100660.31
2023-01-31T14:41:30.229Z,100658.69
2023-01-31T14:44:30.269Z,100667.63
2023-01-31T14:47:06.605Z,100664.06
2023-01-31T14:49:54.310Z,100660.47
2023-01-31T14:52:32.952Z,100674.22
2023-01-31T14:55:26.443Z,100672.31
2023-01-31T14:57:58.250Z,100678.28
2023-01-31T15:00:33.256Z,100685.19
2023-01-31T15:03:16.379Z,100673.13
2023-01-31T15:05:48.923Z,100668.59
2023-01-31T15:08:15.313Z,100678.28
2023-01-31T15:11:03.269Z,100673.13
2023-01-31T15:13:51.094Z,100675.69
2023-01-31T15:16:24.936Z,100672.31
2023-01-31T15:19:08.101Z,100673.91
2023-01-31T15:21:53.175Z,100660.38
2023-01-31T15:24:31.619Z,100651.13
2023-01-31T15:26:59.417Z,100652.59
2023-01-31T15:29:50.357Z,100648.31
2023-01-31T15:32:23.188Z,100620.94
2023-01-31T15:35:01.501Z,100614.31
2023-01-31T15:37:32.671Z,100623.56
2023-01-31T15:40:04.702Z,100618.34
2023-01-31T15:42:33.145Z,100621.06
2023-01-31T15:45:13.251Z,100627.03
2023-01-31T15:47:39.696Z,100612.47
2023-01-31T15:50:17.193Z,100645.06
2023-01-31T15:52:43.725Z,100630.56
2023-01-31T15:55:13.329Z,100633.16
2023-01-31T15:57:43.181Z,100615.91
2023-01-31T16:00:22.347Z,100621.31
2023-01-31T16:02:49.758Z,100624.75
2023-01-31T16:05:20.494Z,100645.31
2023-01-31T16:07:48.537Z,100640.97
2023-01-31T16:10:15.500Z,100657.31
2023-01-31T16:12:46.826Z,100653.78
2023-01-31T16:15:23.215Z,100647.66
2023-01-31T16:17:50.350Z,100634.91
2023-01-31T16:20:39.606Z,100619.47
2023-01-31T16:23:22.981Z,100618.56
2023-01-31T16:26:00.523Z,100628.81
2023-01-31T16:28:29.113Z,100601.41
2023-01-31T16:31:03.878Z,100621.88
2023-01-31T16:33:30.369Z,100626.22
2023-01-31T16:36:15.182Z,100626.53
2023-01-31T16:38:55.331Z,100648.69
2023-01-31T16:41:41.412Z,100642.66
2023-01-31T16:44:12.761Z,100626.53
2023-01-31T16:46:41.962Z,100637.09
2023-01-31T16:49:22.110Z,100636.50
2023-01-31T16:51:49.514Z,100652.78
2023-01-31T16:54:30.671Z,100631.50
2023-01-31T16:57:03.274Z,100627.97
2023-01-31T16:59:38.994Z,100622.00
2023-01-31T17:02:08.373Z,100626.28
2023-01-31T17:04:38.388Z,100631.34
2023-01-31T17:07:27.058Z,100640.84
2023-01-31T17:09:55.833Z,100640.03
2023-01-31T17:12:26.200Z,100635.06
2023-01-31T17:14:57.433Z,100627.16
2023-01-31T17:17:25.556Z,100628.84
2023-01-31T17:19:52.235Z,100646.19
2023-01-31T17:22:18.953Z,100665.00
2023-01-31T17:24:46.852Z,100653.81
2023-01-31T17:27:15.668Z,100657.94
2023-01-31T17:29:43.452Z,100655.44
2023-01-31T17:32:12.410Z,100651.16
2023-01-31T17:34:39.858Z,100664.94
2023-01-31T17:37:06.549Z,100682.09
2023-01-31T17:39:34.177Z,100656.31
2023-01-31T17:42:01.063Z,100670.97
2023-01-31T17:44:27.559Z,100657.94
2023-01-31T17:46:54.016Z,100643.34
2023-01-31T17:49:20.517Z,100624.34
2023-01-31T17:51:46.976Z,100599.38
2023-01-31T17:54:13.549Z,100607.84
2023-01-31T17:56:40.165Z,100611.97
2023-01-31T17:59:08.295Z,100605.91
2023-01-31T18:01:35.029Z,100607.72
2023-01-31T18:04:03.489Z,100624.59
2023-01-31T18:06:29.970Z,100621.97
2023-01-31T18:08:56.692Z,100620.94
2023-01-31T18:11:23.222Z,100640.50
2023-01-31T18:13:49.725Z,100643.97
2023-01-31T18:16:18.441Z,100658.63
2023-01-31T18:18:45.130Z,100653.47
2023-01-31T18:21:13.923Z,100654.16
2023-01-31T18:23:40.502Z,100651.69
2023-01-31T18:26:08.301Z,100650.97
2023-01-31T18:28:35.116Z,100651.84
2023-01-31T18:31:10.587Z,100655.09
2023-01-31T18:33:37.804Z,100645.66
2023-01-31T18:36:06.065Z,100657.00
2023-01-31T18:38:32.963Z,100663.91
2023-01-31T18:41:00.324Z,100670.69
2023-01-31T18:43:29.753Z,100658.63
2023-01-31T18:45:56.331Z,100678.66
2023-01-31T18:48:22.830Z,100673.50
2023-01-31T18:50:49.298Z,100671.00
2023-01-31T18:53:15.792Z,100675.19
2023-01-31T18:55:42.293Z,100671.97
2023-01-31T18:58:08.821Z,100666.00
2023-01-31T19:00:35.333Z,100679.06
2023-01-31T19:03:01.885Z,100686.06
2023-01-31T19:05:28.398Z,100688.56
2023-01-31T19:07:54.902Z,100673.25
2023-01-31T19:10:21.357Z,100668.16
2023-01-31T19:12:48.245Z,100671.63
2023-01-31T19:15:15.852Z,100680.91
2023-01-31T19:17:42.393Z,100673.84
2023-01-31T19:20:09.856Z,100667.75
2023-01-31T19:22:36.354Z,100674.72
2023-01-31T19:25:05.364Z,100663.53
2023-01-31T19:27:31.867Z,100660.84
2023-01-31T19:29:58.321Z,100673.72
2023-01-31T19:32:24.803Z,100667.75
2023-01-31T19:34:53.775Z,100666.81
2023-01-31T19:37:20.931Z,100679.69
2023-01-31T19:39:47.435Z,100666.81
2023-01-31T19:42:13.938Z,100672.84
2023-01-31T19:44:40.407Z,100679.88
2023-01-31T19:47:06.913Z,100684.38
2023-01-31T19:49:33.401Z,100673.19
2023-01-31T19:51:59.870Z,100671.56
2023-01-31T19:54:28.074Z,100675.16
2023-01-31T19:56:54.733Z,100676.88
2023-01-31T19:59:21.206Z,100679.22
2023-01-31T20:01:48.228Z,100675.16
2023-01-31T20:04:14.843Z,100684.59
2023-01-31T20:06:41.320Z,100683.63
2023-01-31T20:09:09.508Z,100682.84
2023-01-31T20:11:36.733Z,100686.06
2023-01-31T20:14:04.577Z,100696.38
2023-01-31T20:16:31.204Z,100704.34
2023-01-31T20:18:57.737Z,100691.44
2023-01-31T20:21:24.247Z,100703.38
2023-01-31T20:23:50.815Z,100698.16
2023-01-31T20:26:18.541Z,100716.25
2023-01-31T20:28:45.096Z,100723.03
2023-01-31T20:31:14.586Z,100701.38
2023-01-31T20:33:41.396Z,100714.16
2023-01-31T20:36:08.348Z,100708.22
2023-01-31T20:38:34.911Z,100701.28
2023-01-31T20:41:01.408Z,100704.56
2023-01-31T20:43:28.107Z,100712.22
2023-01-31T20:46:05.215Z,100701.69
2023-01-31T20:48:32.000Z,100723.13
2023-01-31T20:50:58.868Z,100725.63
2023-01-31T20:53:28.597Z,100743.31
2023-01-31T20:56:02.555Z,100738.16
2023-01-31T20:58:31.283Z,100736.47
2023-01-31T21:00:58.365Z,100728.66
2023-01-31T21:03:24.999Z,100743.97
2023-01-31T21:05:51.979Z,100747.50
2023-01-31T21:08:19.249Z,100762.63
2023-01-31T21:10:53.615Z,100738.00
2023-01-31T21:13:20.551Z,100730.03
2023-01-31T21:19:27.699Z,100730.41
2023-01-31T21:21:54.265Z,100739.75
2023-01-31T21:24:20.782Z,100737.34
2023-01-31T21:26:47.289Z,100742.34
2023-01-31T21:29:13.805Z,100740.41
2023-01-31T21:31:40.386Z,100742.97
2023-01-31T21:34:07.011Z,100751.66
2023-01-31T21:36:36.012Z,100735.94
2023-01-31T21:39:02.683Z,100737.81
2023-01-31T21:41:47.824Z,100746.44
2023-01-31T21:44:14.320Z,100729.28
2023-01-31T21:46:40.800Z,100738.50
2023-01-31T21:49:08.482Z,100742.78
2023-01-31T21:51:51.472Z,100738.50
2023-01-31T21:54:17.949Z,100747.31
2023-01-31T21:56:44.390Z,100745.63
2023-01-31T21:59:12.025Z,100737.19
2023-01-31T22:01:38.781Z,100745.78
2023-01-31T22:04:05.378Z,100747.41
2023-01-31T22:06:38.142Z,100737.97
2023-01-31T22:09:05.737Z,100758.50
2023-01-31T22:11:33.360Z,100738.13
2023-01-31T22:14:01.940Z,100749.16
2023-01-31T22:16:28.531Z,100732.19
2023-01-31T22:18:55.186Z,100746.84
2023-01-31T22:21:27.116Z,100735.56
2023-01-31T22:23:55.765Z,100739.75
2023-01-31T22:26:27.559Z,100737.25
2023-01-31T22:28:55.617Z,100742.50
2023-01-31T22:31:22.537Z,100740.88
2023-01-31T22:33:50.631Z,100735.56
2023-01-31T22:36:17.822Z,100737.09
2023-01-31T22:38:49.320Z,100727.69
2023-01-31T22:41:19.641Z,100726.44
2023-01-31T22:43:48.957Z,100753.88
2023-01-31T22:46:18.106Z,100745.28
2023-01-31T22:48:45.086Z,100751.88
2023-01-31T22:51:13.586Z,100743.19
2023-01-31T22:53:40.586Z,100746.50
2023-01-31T22:56:13.082Z,100748.06
2023-01-31T22:58:39.741Z,100743.72
2023-01-31T23:01:17.071Z,100730.69
2023-01-31T23:03:43.641Z,100736.63
2023-01-31T23:06:11.035Z,100728.75
2023-01-31T23:08:38.117Z,100730.28
2023-01-31T23:11:10.299Z,100729.47
2023-01-31T23:13:37.208Z,100731.97
2023-01-31T23:16:05.448Z,100728.59
2023-01-31T23:18:32.024Z,100728.41
2023-01-31T23:21:10.698Z,100732.41
2023-01-31T23:23:42.835Z,100725.50
2023-01-31T23:26:09.995Z,100736.44
2023-01-31T23:28:36.558Z,100730.47
2023-01-31T23:31:03.240Z,100725.94
2023-01-31T23:33:29.896Z,100722.56
2023-01-31T23:35:56.376Z,100730.28
2023-01-31T23:38:23.114Z,100733.66
2023-01-31T23:44:30.253Z,100718.53
2023-01-31T23:46:56.773Z,100728.03
2023-01-31T23:49:23.270Z,100716.84
2023-01-31T23:51:49.724Z,100733.16
2023-01-31T23:54:16.304Z,100706.53
2023-01-31T23:56:42.752Z,100716.91
2023-01-31T23:59:09.331Z,100727.13
